createdAt,value
2023-04-20T00:00:11.799Z,7.40
2023-04-20T00:02:40.162Z,7.40
2023-04-20T00:05:08.342Z,7.40
2023-04-20T00:07:36.130Z,7.40
2023-04-20T00:10:04.533Z,7.40
2023-04-20T00:12:31.870Z,7.40
2023-04-20T00:14:59.424Z,7.40
2023-04-20T00:17:26.800Z,7.40
2023-04-20T00:19:54.097Z,7.40
2023-04-20T00:22:21.323Z,7.30
2023-04-20T00:24:48.550Z,7.30
2023-04-20T00:27:16.101Z,7.30
2023-04-20T00:29:43.750Z,7.30
2023-04-20T00:32:11.048Z,7.20
2023-04-20T00:34:38.451Z,7.20
2023-04-20T00:37:06.747Z,7.10
2023-04-20T00:39:33.960Z,7.10
2023-04-20T00:42:09.026Z,7.00
2023-04-20T00:44:36.458Z,7.00
2023-04-20T00:47:03.628Z,7.00
2023-04-20T00:49:32.073Z,7.00
2023-04-20T00:52:00.261Z,7.00
2023-04-20T00:54:29.503Z,6.90
2023-04-20T00:56:58.595Z,6.90
2023-04-20T00:59:26.228Z,6.90
2023-04-20T01:01:53.412Z,6.90
2023-04-20T01:04:21.416Z,6.90
2023-04-20T01:06:48.676Z,6.80
2023-04-20T01:09:16.421Z,6.80
2023-04-20T01:11:44.001Z,6.80
2023-04-20T01:14:11.400Z,6.70
2023-04-20T01:16:38.594Z,6.70
2023-04-20T01:19:05.889Z,6.70
2023-04-20T01:21:33.204Z,6.70
2023-04-20T01:24:00.548Z,6.70
2023-04-20T01:26:28.146Z,6.70
2023-04-20T01:28:55.932Z,6.70
2023-04-20T01:31:23.638Z,6.70
2023-04-20T01:33:51.378Z,6.70
2023-04-20T01:36:18.626Z,6.70
2023-04-20T01:38:45.854Z,6.60
2023-04-20T01:41:13.497Z,6.60
2023-04-20T01:43:41.206Z,6.60
2023-04-20T01:46:08.452Z,6.60
2023-04-20T01:48:35.928Z,6.60
2023-04-20T01:51:03.365Z,6.60
2023-04-20T01:53:30.816Z,6.70
2023-04-20T01:55:59.266Z,6.70
2023-04-20T01:58:26.667Z,6.60
2023-04-20T02:00:53.992Z,6.60
2023-04-20T02:03:21.950Z,6.60
2023-04-20T02:05:49.438Z,6.60
2023-04-20T02:08:16.550Z,6.60
2023-04-20T02:10:43.885Z,6.60
2023-04-20T02:13:11.868Z,6.60
2023-04-20T02:15:39.025Z,6.70
2023-04-20T02:18:07.065Z,6.70
2023-04-20T02:20:34.672Z,6.70
2023-04-20T02:23:02.017Z,6.70
2023-04-20T02:25:29.371Z,6.70
2023-04-20T02:27:57.532Z,6.70
2023-04-20T02:30:24.820Z,6.70
2023-04-20T02:32:52.286Z,6.70
2023-04-20T02:35:19.517Z,6.70
2023-04-20T02:37:48.569Z,6.70
2023-04-20T02:40:16.336Z,6.70
2023-04-20T02:42:43.696Z,6.70
2023-04-20T02:45:11.578Z,6.70
2023-04-20T02:47:38.915Z,6.70
2023-04-20T02:50:06.912Z,6.70
2023-04-20T02:52:34.482Z,6.70
2023-04-20T02:55:01.882Z,6.70
2023-04-20T02:57:29.392Z,6.70
2023-04-20T02:59:57.133Z,6.70
2023-04-20T03:02:24.457Z,6.70
2023-04-20T03:04:52.050Z,6.70
2023-04-20T03:07:19.585Z,6.60
2023-04-20T03:09:46.888Z,6.60
2023-04-20T03:12:14.931Z,6.60
2023-04-20T03:14:42.364Z,6.60
2023-04-20T03:17:09.793Z,6.60
2023-04-20T03:19:37.152Z,6.60
2023-04-20T03:22:04.642Z,6.60
2023-04-20T03:24:31.943Z,6.60
2023-04-20T03:27:05.451Z,6.60
2023-04-20T03:29:32.854Z,6.70
2023-04-20T03:32:00.110Z,6.70
2023-04-20T03:34:27.572Z,6.70
2023-04-20T03:36:54.942Z,6.70
2023-04-20T03:39:22.243Z,6.70
2023-04-20T03:41:49.437Z,6.70
2023-04-20T03:44:17.141Z,6.70
2023-04-20T03:46:46.941Z,6.70
2023-04-20T03:49:14.329Z,6.60
2023-04-20T03:51:41.537Z,6.60
2023-04-20T03:54:08.781Z,6.60
2023-04-20T03:56:36.271Z,6.60
2023-04-20T03:59:03.602Z,6.60
2023-04-20T04:01:32.233Z,6.60
2023-04-20T04:03:59.775Z,6.50
2023-04-20T04:06:27.686Z,6.50
2023-04-20T04:08:58.026Z,6.50
2023-04-20T04:11:26.227Z,6.50
2023-04-20T04:13:53.445Z,6.50
2023-04-20T04:16:20.671Z,6.50
2023-04-20T04:18:48.261Z,6.50
2023-04-20T04:21:15.335Z,6.50
2023-04-20T04:23:42.721Z,6.50
2023-04-20T04:26:10.350Z,6.50
2023-04-20T04:28:37.505Z,6.50
2023-04-20T04:31:06.359Z,6.50
2023-04-20T04:33:37.934Z,6.50
2023-04-20T04:36:06.427Z,6.50
2023-04-20T04:38:34.850Z,6.50
2023-04-20T04:41:02.267Z,6.50
2023-04-20T04:43:29.702Z,6.50
2023-04-20T04:45:58.708Z,6.50
2023-04-20T04:48:25.945Z,6.50
2023-04-20T04:50:52.999Z,6.50
2023-04-20T04:53:20.209Z,6.50
2023-04-20T04:55:47.696Z,6.50
2023-04-20T04:58:15.998Z,6.50
2023-04-20T05:00:44.339Z,6.50
2023-04-20T05:03:14.810Z,6.50
2023-04-20T05:05:42.272Z,6.50
2023-04-20T05:08:09.479Z,6.60
2023-04-20T05:10:36.706Z,6.60
2023-04-20T05:13:03.933Z,6.60
2023-04-20T05:15:33.763Z,6.50
2023-04-20T05:18:02.595Z,6.60
2023-04-20T05:20:30.003Z,6.60
2023-04-20T05:22:57.239Z,6.60
2023-04-20T05:25:24.537Z,6.60
2023-04-20T05:27:55.068Z,6.60
2023-04-20T05:30:22.412Z,6.60
2023-04-20T05:32:52.257Z,6.60
2023-04-20T05:35:20.457Z,6.60
2023-04-20T05:37:48.163Z,6.60
2023-04-20T05:40:15.980Z,6.60
2023-04-20T05:42:43.419Z,6.60
2023-04-20T05:45:11.518Z,6.60
2023-04-20T05:47:38.738Z,6.60
2023-04-20T05:50:06.722Z,6.70
2023-04-20T05:52:34.020Z,6.70
2023-04-20T05:55:01.273Z,6.70
2023-04-20T05:57:28.581Z,6.80
2023-04-20T05:59:56.415Z,6.80
2023-04-20T06:02:23.747Z,6.80
2023-04-20T06:04:51.376Z,6.80
2023-04-20T06:07:18.763Z,6.80
2023-04-20T06:09:47.488Z,6.80
2023-04-20T06:12:14.858Z,6.80
2023-04-20T06:14:42.132Z,6.80
2023-04-20T06:17:09.272Z,6.80
2023-04-20T06:19:36.583Z,6.90
2023-04-20T06:22:10.299Z,6.90
2023-04-20T06:24:38.966Z,6.90
2023-04-20T06:27:06.227Z,7.00
2023-04-20T06:29:33.498Z,7.00
2023-04-20T06:32:01.153Z,7.00
2023-04-20T06:34:28.446Z,7.00
2023-04-20T06:36:55.928Z,7.00
2023-04-20T06:39:23.238Z,7.00
2023-04-20T06:41:50.549Z,7.00
2023-04-20T06:44:17.959Z,7.00
2023-04-20T06:46:45.331Z,7.00
2023-04-20T06:49:12.587Z,7.00
2023-04-20T06:51:40.065Z,7.00
2023-04-20T06:54:07.408Z,7.10
2023-04-20T06:56:35.765Z,7.10
2023-04-20T06:59:03.310Z,7.10
2023-04-20T07:01:31.114Z,7.10
2023-04-20T07:03:58.907Z,7.10
2023-04-20T07:06:27.943Z,7.10
2023-04-20T07:08:55.155Z,7.10
2023-04-20T07:11:23.967Z,7.10
2023-04-20T07:13:51.233Z,7.20
2023-04-20T07:16:18.542Z,7.20
2023-04-20T07:18:46.045Z,7.20
2023-04-20T07:21:13.991Z,7.20
2023-04-20T07:23:43.303Z,7.30
2023-04-20T07:26:12.753Z,7.30
2023-04-20T07:28:40.231Z,7.30
2023-04-20T07:31:07.447Z,7.30
2023-04-20T07:33:36.043Z,7.30
2023-04-20T07:36:04.876Z,7.30
2023-04-20T07:38:32.167Z,7.30
2023-04-20T07:40:59.765Z,7.30
2023-04-20T07:43:27.177Z,7.30
2023-04-20T07:45:54.743Z,7.30
2023-04-20T07:48:22.006Z,7.40
2023-04-20T07:50:49.413Z,7.30
2023-04-20T07:53:16.675Z,7.30
2023-04-20T07:55:43.822Z,7.40
2023-04-20T07:58:11.198Z,7.40
2023-04-20T08:00:38.378Z,7.40
2023-04-20T08:03:08.067Z,7.40
2023-04-20T08:05:38.247Z,7.40
2023-04-20T08:08:05.473Z,7.40
2023-04-20T08:10:32.836Z,7.50
2023-04-20T08:13:00.180Z,7.50
2023-04-20T08:15:27.532Z,7.50
2023-04-20T08:17:54.892Z,7.60
2023-04-20T08:20:22.203Z,7.60
2023-04-20T08:22:51.030Z,7.60
2023-04-20T08:25:21.186Z,7.60
2023-04-20T08:27:48.265Z,7.60
2023-04-20T08:30:15.777Z,7.70
2023-04-20T08:32:43.156Z,7.70
2023-04-20T08:35:10.758Z,7.80
2023-04-20T08:37:39.809Z,7.80
2023-04-20T08:40:07.684Z,7.80
2023-04-20T08:42:35.315Z,7.80
2023-04-20T08:45:02.607Z,7.80
2023-04-20T08:47:30.360Z,7.90
2023-04-20T08:49:59.911Z,7.90
2023-04-20T08:52:32.564Z,7.90
2023-04-20T08:54:59.770Z,8.00
2023-04-20T08:57:27.434Z,8.00
2023-04-20T08:59:54.847Z,8.00
2023-04-20T09:02:26.620Z,8.00
2023-04-20T09:05:05.410Z,8.00
2023-04-20T09:07:33.053Z,8.10
2023-04-20T09:10:01.459Z,8.10
2023-04-20T09:12:29.335Z,8.10
2023-04-20T09:14:57.196Z,8.10
2023-04-20T09:17:42.522Z,8.10
2023-04-20T09:20:11.556Z,8.10
2023-04-20T09:22:39.310Z,8.20
2023-04-20T09:25:16.825Z,8.20
2023-04-20T09:27:44.095Z,8.30
2023-04-20T09:30:12.244Z,8.30
2023-04-20T09:32:39.652Z,8.50
2023-04-20T09:35:10.381Z,8.50
2023-04-20T09:37:48.195Z,8.60
2023-04-20T09:40:16.890Z,8.70
2023-04-20T09:42:44.606Z,8.80
2023-04-20T09:45:18.766Z,8.80
2023-04-20T09:47:47.918Z,8.90
2023-04-20T09:52:49.492Z,9.00
2023-04-20T09:55:16.773Z,9.00
2023-04-20T09:57:45.628Z,9.00
2023-04-20T10:00:13.395Z,9.10
2023-04-20T10:02:40.815Z,9.10
2023-04-20T10:05:08.995Z,9.20
2023-04-20T10:07:36.466Z,9.20
2023-04-20T10:10:09.427Z,9.20
2023-04-20T10:12:50.797Z,9.20
2023-04-20T10:15:18.925Z,9.30
2023-04-20T10:17:46.481Z,9.30
2023-04-20T10:20:30.013Z,9.30
2023-04-20T10:23:11.890Z,9.30
2023-04-20T10:25:39.175Z,9.30
2023-04-20T10:28:10.192Z,9.40
2023-04-20T10:30:49.638Z,9.40
2023-04-20T10:33:18.523Z,9.50
2023-04-20T10:35:49.497Z,9.60
2023-04-20T10:38:28.586Z,9.60
2023-04-20T10:40:56.092Z,9.70
2023-04-20T10:43:23.632Z,9.80
2023-04-20T10:45:51.423Z,9.70
2023-04-20T10:48:18.804Z,9.80
2023-04-20T10:50:46.416Z,9.80
2023-04-20T10:53:21.178Z,9.80
2023-04-20T10:55:58.426Z,9.70
2023-04-20T10:58:27.146Z,9.70
2023-04-20T11:00:59.399Z,9.70
2023-04-20T11:03:29.564Z,9.60
2023-04-20T11:06:04.246Z,9.60
2023-04-20T11:08:42.237Z,9.60
2023-04-20T11:11:27.818Z,9.60
2023-04-20T11:14:09.472Z,9.60
2023-04-20T11:16:49.845Z,9.60
2023-04-20T11:19:48.421Z,9.60
2023-04-20T11:22:24.451Z,9.60
2023-04-20T11:24:51.867Z,9.50
2023-04-20T11:27:24.923Z,9.50
2023-04-20T11:29:59.962Z,9.50
2023-04-20T11:32:27.827Z,9.40
2023-04-20T11:35:06.905Z,9.40
2023-04-20T11:37:46.726Z,9.40
2023-04-20T11:40:15.460Z,9.40
2023-04-20T11:42:42.760Z,9.40
2023-04-20T11:45:12.109Z,9.40
2023-04-20T11:47:41.721Z,9.40
2023-04-20T11:50:10.655Z,9.40
2023-04-20T11:52:38.123Z,9.40
2023-04-20T11:55:08.690Z,9.40
2023-04-20T11:57:36.454Z,9.40
2023-04-20T12:00:04.765Z,9.40
2023-04-20T12:02:35.324Z,9.40
2023-04-20T12:05:03.565Z,9.40
2023-04-20T12:07:31.563Z,9.40
2023-04-20T12:09:58.973Z,9.40
2023-04-20T12:12:27.175Z,9.40
2023-04-20T12:14:54.611Z,9.40
2023-04-20T12:17:21.829Z,9.50
2023-04-20T12:19:49.349Z,9.50
2023-04-20T12:22:16.604Z,9.50
2023-04-20T12:24:43.737Z,9.50
2023-04-20T12:27:11.272Z,9.60
2023-04-20T12:29:38.414Z,9.60
2023-04-20T12:32:06.013Z,9.60
2023-04-20T12:34:35.166Z,9.60
2023-04-20T12:37:02.467Z,9.60
2023-04-20T12:39:29.536Z,9.70
2023-04-20T12:41:57.738Z,9.70
2023-04-20T12:44:25.051Z,9.70
2023-04-20T12:46:52.203Z,9.80
2023-04-20T12:49:20.099Z,9.80
2023-04-20T12:51:50.280Z,9.80
2023-04-20T12:54:18.260Z,9.80
2023-04-20T12:56:46.470Z,9.90
2023-04-20T12:59:14.508Z,9.90
2023-04-20T13:01:41.945Z,10.00
2023-04-20T13:04:12.205Z,10.00
2023-04-20T13:06:39.586Z,10.10
2023-04-20T13:09:07.276Z,10.10
2023-04-20T13:11:34.476Z,10.10
2023-04-20T13:14:01.785Z,10.20
2023-04-20T13:16:29.653Z,10.20
2023-04-20T13:18:57.338Z,10.30
2023-04-20T13:21:25.241Z,10.40
2023-04-20T13:23:56.968Z,10.40
2023-04-20T13:26:24.300Z,10.50
2023-04-20T13:28:57.375Z,10.50
2023-04-20T13:31:25.841Z,10.60
2023-04-20T13:36:26.622Z,10.80
2023-04-20T13:38:54.211Z,10.90
2023-04-20T13:41:22.348Z,11.00
2023-04-20T13:43:50.172Z,11.00
2023-04-20T13:46:17.674Z,11.10
2023-04-20T13:48:44.951Z,11.20
2023-04-20T13:51:12.327Z,11.20
2023-04-20T13:53:39.633Z,11.20
2023-04-20T13:56:07.310Z,11.30
2023-04-20T13:58:34.749Z,11.30
2023-04-20T14:01:11.092Z,11.40
2023-04-20T14:03:40.127Z,11.50
2023-04-20T14:06:07.726Z,11.50
2023-04-20T14:08:38.230Z,11.60
2023-04-20T14:11:05.979Z,11.60
2023-04-20T14:13:33.127Z,11.60
2023-04-20T14:16:00.684Z,11.60
2023-04-20T14:18:36.177Z,11.60
2023-04-20T14:21:03.570Z,11.70
2023-04-20T14:23:31.155Z,11.70
2023-04-20T14:25:58.810Z,11.80
2023-04-20T14:28:26.223Z,11.80
2023-04-20T14:30:53.473Z,11.80
2023-04-20T14:33:20.884Z,11.90
2023-04-20T14:35:48.021Z,11.90
2023-04-20T14:38:17.068Z,11.90
2023-04-20T14:40:44.454Z,12.00
2023-04-20T14:43:12.327Z,12.00
2023-04-20T14:45:41.784Z,12.00
2023-04-20T14:48:09.060Z,12.00
2023-04-20T14:50:36.227Z,12.10
2023-04-20T14:53:03.992Z,12.10
2023-04-20T14:55:31.161Z,12.20
2023-04-20T14:57:58.888Z,12.20
2023-04-20T15:00:28.695Z,12.20
2023-04-20T15:02:56.985Z,12.30
2023-04-20T15:05:26.312Z,12.30
2023-04-20T15:07:54.892Z,12.40
2023-04-20T15:10:22.454Z,12.40
2023-04-20T15:12:49.758Z,12.40
2023-04-20T15:15:17.286Z,12.40
2023-04-20T15:17:47.059Z,12.50
2023-04-20T15:20:18.148Z,12.50
2023-04-20T15:22:45.910Z,12.50
2023-04-20T15:25:13.503Z,12.50
2023-04-20T15:27:40.755Z,12.60
2023-04-20T15:30:08.504Z,12.50
2023-04-20T15:32:36.461Z,12.60
2023-04-20T15:35:04.148Z,12.60
2023-04-20T15:37:31.591Z,12.60
2023-04-20T15:39:59.549Z,12.60
2023-04-20T15:42:27.629Z,12.60
2023-04-20T15:44:55.013Z,12.60
2023-04-20T15:47:22.322Z,12.60
2023-04-20T15:49:49.954Z,12.60
2023-04-20T15:52:17.191Z,12.70
2023-04-20T15:54:47.592Z,12.70
2023-04-20T15:57:14.748Z,12.70
2023-04-20T15:59:42.094Z,12.70
2023-04-20T16:02:09.341Z,12.70
2023-04-20T16:04:37.083Z,12.80
2023-04-20T16:07:04.574Z,12.80
2023-04-20T16:09:31.998Z,12.90
2023-04-20T16:11:59.754Z,12.80
2023-04-20T16:14:27.160Z,12.80
2023-04-20T16:16:54.992Z,12.90
2023-04-20T16:19:24.025Z,12.90
2023-04-20T16:21:51.150Z,12.90
2023-04-20T16:24:18.658Z,12.90
2023-04-20T16:26:46.853Z,12.90
2023-04-20T16:29:16.141Z,13.00
2023-04-20T16:31:43.681Z,13.00
2023-04-20T16:34:11.115Z,13.00
2023-04-20T16:36:38.449Z,13.00
2023-04-20T16:39:06.019Z,13.10
2023-04-20T16:41:33.499Z,13.10
2023-04-20T16:44:00.697Z,13.10
2023-04-20T16:46:28.061Z,13.20
2023-04-20T16:48:55.371Z,13.20
2023-04-20T16:51:22.812Z,13.30
2023-04-20T16:53:50.044Z,13.40
2023-04-20T16:56:17.527Z,13.40
2023-04-20T16:58:44.793Z,13.50
2023-04-20T17:01:14.078Z,13.50
2023-04-20T17:03:41.685Z,13.50
2023-04-20T17:06:10.004Z,13.60
2023-04-20T17:08:40.254Z,13.60
2023-04-20T17:11:10.823Z,13.70
2023-04-20T17:13:39.308Z,13.70
2023-04-20T17:16:06.739Z,13.70
2023-04-20T17:18:35.403Z,13.70
2023-04-20T17:21:03.110Z,13.80
2023-04-20T17:23:32.759Z,13.70
2023-04-20T17:26:00.202Z,13.70
2023-04-20T17:28:30.232Z,13.70
2023-04-20T17:30:57.504Z,13.70
2023-04-20T17:33:24.881Z,13.70
2023-04-20T17:35:52.068Z,13.70
2023-04-20T17:38:19.372Z,13.80
2023-04-20T17:40:46.846Z,13.70
2023-04-20T17:43:15.632Z,13.70
2023-04-20T17:45:43.374Z,13.70
2023-04-20T17:48:10.710Z,13.70
2023-04-20T17:50:39.776Z,13.60
2023-04-20T17:53:08.305Z,13.60
2023-04-20T17:55:36.012Z,13.60
2023-04-20T17:58:04.722Z,13.60
2023-04-20T18:00:32.016Z,13.50
2023-04-20T18:03:00.630Z,13.50
2023-04-20T18:05:28.208Z,13.50
2023-04-20T18:07:56.003Z,13.40
2023-04-20T18:10:23.400Z,13.40
2023-04-20T18:12:50.764Z,13.40
2023-04-20T18:15:18.043Z,13.30
2023-04-20T18:17:45.335Z,13.30
2023-04-20T18:20:15.710Z,13.20
2023-04-20T18:22:42.841Z,13.20
2023-04-20T18:25:10.428Z,13.10
2023-04-20T18:27:38.574Z,13.10
2023-04-20T18:30:07.135Z,13.00
2023-04-20T18:32:36.709Z,13.00
2023-04-20T18:35:05.214Z,12.90
2023-04-20T18:37:32.393Z,12.80
2023-04-20T18:40:02.626Z,12.80
2023-04-20T18:42:30.126Z,12.70
2023-04-20T18:44:57.525Z,12.70
2023-04-20T18:47:25.968Z,12.60
2023-04-20T18:49:53.591Z,12.60
2023-04-20T18:52:22.054Z,12.50
2023-04-20T18:54:49.409Z,12.40
2023-04-20T18:57:16.873Z,12.40
2023-04-20T18:59:43.915Z,12.30
2023-04-20T19:02:13.783Z,12.30
2023-04-20T19:04:41.940Z,12.20
2023-04-20T19:07:09.390Z,12.20
2023-04-20T19:09:36.530Z,12.10
2023-04-20T19:12:03.998Z,12.10
2023-04-20T19:14:31.865Z,12.00
2023-04-20T19:16:59.294Z,12.00
2023-04-20T19:19:26.794Z,11.90
2023-04-20T19:21:54.452Z,11.90
2023-04-20T19:24:21.951Z,11.80
2023-04-20T19:26:49.318Z,11.80
2023-04-20T19:29:16.608Z,11.70
2023-04-20T19:31:44.369Z,11.70
2023-04-20T19:34:13.746Z,11.70
2023-04-20T19:36:42.443Z,11.70
2023-04-20T19:39:10.678Z,11.60
2023-04-20T19:41:38.467Z,11.60
2023-04-20T19:44:06.761Z,11.60
2023-04-20T19:46:34.675Z,11.50
2023-04-20T19:49:02.122Z,11.50
2023-04-20T19:51:29.711Z,11.50
2023-04-20T19:53:59.344Z,11.40
2023-04-20T19:56:26.927Z,11.40
2023-04-20T19:58:54.474Z,11.30
2023-04-20T20:01:22.166Z,11.30
2023-04-20T20:03:49.755Z,11.30
2023-04-20T20:06:17.078Z,11.20
2023-04-20T20:08:44.517Z,11.20
2023-04-20T20:11:12.327Z,11.20
2023-04-20T20:13:40.453Z,11.10
2023-04-20T20:16:07.621Z,11.10
2023-04-20T20:18:34.860Z,11.00
2023-04-20T20:21:02.490Z,11.00
2023-04-20T20:23:30.035Z,11.00
2023-04-20T20:25:57.359Z,10.90
2023-04-20T20:28:25.058Z,10.90
2023-04-20T20:30:52.160Z,10.80
2023-04-20T20:33:19.500Z,10.80
2023-04-20T20:35:46.694Z,10.80
2023-04-20T20:38:14.304Z,10.70
2023-04-20T20:40:41.651Z,10.70
2023-04-20T20:43:09.352Z,10.70
2023-04-20T20:45:40.143Z,10.60
2023-04-20T20:48:07.433Z,10.60
2023-04-20T20:50:34.821Z,10.60
2023-04-20T20:53:02.041Z,10.50
2023-04-20T20:55:29.140Z,10.50
2023-04-20T20:57:56.251Z,10.50
2023-04-20T21:00:23.717Z,10.50
2023-04-20T21:02:53.017Z,10.40
2023-04-20T21:05:23.098Z,10.40
2023-04-20T21:07:50.758Z,10.40
2023-04-20T21:10:18.132Z,10.40
2023-04-20T21:12:45.338Z,10.30
2023-04-20T21:15:12.969Z,10.30
2023-04-20T21:17:40.431Z,10.30
2023-04-20T21:20:09.454Z,10.20
2023-04-20T21:22:36.834Z,10.20
2023-04-20T21:25:04.413Z,10.10
2023-04-20T21:27:32.258Z,10.10
2023-04-20T21:29:59.848Z,10.10
2023-04-20T21:32:27.493Z,10.00
2023-04-20T21:34:54.952Z,9.90
2023-04-20T21:37:22.333Z,9.90
2023-04-20T21:39:52.647Z,9.90
2023-04-20T21:42:19.884Z,9.80
2023-04-20T21:44:47.483Z,9.80
2023-04-20T21:47:14.752Z,9.80
2023-04-20T21:49:44.051Z,9.80
2023-04-20T21:52:11.364Z,9.70
2023-04-20T21:54:41.128Z,9.70
2023-04-20T21:57:08.542Z,9.60
2023-04-20T21:59:35.904Z,9.60
2023-04-20T22:02:03.960Z,9.60
2023-04-20T22:04:32.356Z,9.60
2023-04-20T22:07:00.854Z,9.50
2023-04-20T22:09:28.139Z,9.50
2023-04-20T22:11:56.213Z,9.50
2023-04-20T22:14:24.869Z,9.40
2023-04-20T22:16:52.879Z,9.40
2023-04-20T22:19:20.666Z,9.40
2023-04-20T22:21:48.003Z,9.30
2023-04-20T22:24:15.429Z,9.30
2023-04-20T22:26:42.862Z,9.30
2023-04-20T22:29:10.476Z,9.20
2023-04-20T22:31:37.875Z,9.20
2023-04-20T22:34:05.080Z,9.20
2023-04-20T22:36:32.921Z,9.20
2023-04-20T22:39:03.314Z,9.10
2023-04-20T22:41:31.500Z,9.00
2023-04-20T22:44:00.621Z,9.00
2023-04-20T22:46:28.504Z,9.00
2023-04-20T22:48:56.967Z,8.90
2023-04-20T22:51:24.251Z,8.90
2023-04-20T22:53:51.467Z,8.80
2023-04-20T22:56:18.882Z,8.80
2023-04-20T22:58:46.168Z,8.80
2023-04-20T23:01:13.545Z,8.80
2023-04-20T23:03:40.772Z,8.70
2023-04-20T23:06:08.369Z,8.70
2023-04-20T23:08:35.608Z,8.70
2023-04-20T23:11:02.894Z,8.70
2023-04-20T23:13:30.381Z,8.70
2023-04-20T23:15:58.859Z,8.70
2023-04-20T23:18:26.025Z,8.60
2023-04-20T23:20:53.310Z,8.60
2023-04-20T23:23:20.545Z,8.60
2023-04-20T23:25:47.729Z,8.60
2023-04-20T23:28:14.892Z,8.50
2023-04-20T23:30:42.085Z,8.50
2023-04-20T23:33:09.476Z,8.50
2023-04-20T23:35:40.053Z,8.50
2023-04-20T23:38:10.301Z,8.50
2023-04-20T23:40:38.731Z,8.50
2023-04-20T23:43:06.052Z,8.40
2023-04-20T23:45:33.497Z,8.40
2023-04-20T23:48:03.837Z,8.30
2023-04-20T23:50:31.008Z,8.30
2023-04-20T23:52:58.212Z,8.30
2023-04-20T23:55:25.725Z,8.30
2023-04-20T23:57:53.133Z,8.20
